Date,TemperatureHighF,TemperatureAvgF,TemperatureLowF,DewpointHighF,DewpointAvgF,DewpointLowF,HumidityHigh,HumidityAvg,HumidityLow,PressureMaxIn,PressureMinIn,WindSpeedMaxMPH,WindSpeedAvgMPH,GustSpeedMaxMPH,PrecipitationSumIn
2013-8-1,97.6,73.6,54.6,58.5,54.2,49.2,88,56,20,30.02,29.78,4,1,12,0.00
2013-8-2,96.7,75.3,55.9,55.8,48.8,-99.9,80,47,22,29.86,29.77,3,1,14,0.00
2013-8-3,94.5,72.3,53.9,64.5,55.0,45.1,100,59,27,30.06,29.83,4,1,17,0.27
2013-8-4,92.8,69.9,56.0,67.3,56.2,51.8,100,68,27,30.05,29.88,2,0,15,0.37
2013-8-5,89.7,73.4,57.9,59.0,53.4,49.3,74,52,29,29.93,29.83,3,1,10,0.06
2013-8-6,91.9,72.8,58.1,55.8,50.8,46.3,75,50,24,29.87,29.78,4,1,16,0.02
2013-8-7,73.4,66.9,59.8,59.4,53.9,48.3,87,64,49,29.91,29.80,3,0,10,0.02
2013-8-8,80.3,63.9,53.4,60.1,57.0,52.4,99,81,45,29.97,29.82,2,0,13,0.03
2013-8-9,84.0,62.3,49.8,59.8,52.0,48.5,100,73,32,30.02,29.94,2,0,10,0.03
2013-8-10,90.6,68.9,49.6,56.6,50.0,45.2,95,57,24,30.02,29.88,2,0,13,0.02
2013-8-11,85.1,68.5,56.0,66.7,52.2,46.6,81,58,29,30.01,29.90,1,0,8,0.02
2013-8-12,84.3,65.1,48.2,61.3,50.0,-99.9,98,67,41,30.02,29.91,3,0,9,0.01
2013-8-13,83.0,65.8,46.9,58.2,53.0,46.4,98,67,33,30.03,29.93,3,1,15,0.01
2013-8-14,85.9,67.7,51.5,54.0,47.4,-99.9,98,58,28,30.01,29.85,2,0,9,0.02
2013-8-15,89.8,69.5,52.2,54.0,48.6,41.9,76,51,24,29.94,29.84,2,0,12,0.02
2013-8-16,94.2,72.7,52.5,52.3,47.0,43.2,76,45,19,29.95,29.87,1,0,8,0.00
2013-8-17,97.9,75.6,53.5,55.7,47.5,40.4,71,42,16,29.94,29.80,2,0,9,0.00
2013-8-18,97.0,75.9,49.8,56.8,46.9,-99.9,80,43,21,29.90,29.82,2,0,8,0.00
2013-8-19,103.1,78.2,53.9,75.6,48.7,42.8,72,39,18,29.90,29.79,2,0,9,0.00
2013-8-20,124.8,81.5,61.5,67.2,47.4,43.1,56,33,15,29.86,29.75,2,0,8,0.00
2013-8-21,92.0,75.2,63.7,60.2,50.4,44.7,67,44,26,29.90,29.81,2,0,13,0.00
2013-8-22,67.3,64.6,63.3,55.7,54.8,52.6,72,70,68,29.94,29.89,0,0,1,0.00
2013-8-24,91.4,69.5,43.7,62.6,54.6,38.9,87,63,28,29.87,29.80,3,0,17,0.02
2013-8-25,91.5,73.0,59.2,60.8,55.5,49.0,90,59,27,29.93,29.84,3,0,11,0.01
2013-8-26,93.7,74.2,57.2,59.6,56.5,51.9,94,59,28,29.93,29.84,2,0,10,0.01
2013-8-27,93.7,75.8,58.5,59.3,56.3,52.0,79,54,27,29.91,29.78,2,0,8,0.00
2013-8-28,96.5,76.0,52.0,57.7,54.7,47.9,86,52,24,29.88,29.80,1,0,7,0.00
2013-8-29,98.5,76.8,59.1,56.8,52.8,48.3,73,47,24,29.93,29.85,3,0,13,0.00
2013-8-30,92.1,74.5,64.6,62.1,55.9,51.1,70,54,31,29.94,29.86,4,0,12,0.01
2013-8-31,145.6,76.0,50.2,99.9,55.9,43.9,100,53,27,29.88,29.78,3,1,11,0.01